sensor_id;sensor_type;location;lat;lon;timestamp;temperature;humidity
21493;DHT22;10908;50.690;4.400;2023-05-07T00:00:19;15.30;83.90
21493;DHT22;10908;50.690;4.400;2023-05-07T00:02:45;15.40;83.80
21493;DHT22;10908;50.690;4.400;2023-05-07T00:05:12;15.40;83.50
21493;DHT22;10908;50.690;4.400;2023-05-07T00:07:37;15.30;83.40
21493;DHT22;10908;50.690;4.400;2023-05-07T00:10:04;15.40;83.50
21493;DHT22;10908;50.690;4.400;2023-05-07T00:12:32;15.50;83.20
21493;DHT22;10908;50.690;4.400;2023-05-07T00:15:00;15.50;83.20
21493;DHT22;10908;50.690;4.400;2023-05-07T00:17:25;15.50;83.00
21493;DHT22;10908;50.690;4.400;2023-05-07T00:19:51;15.40;82.80
21493;DHT22;10908;50.690;4.400;2023-05-07T00:22:17;15.40;82.90
21493;DHT22;10908;50.690;4.400;2023-05-07T00:24:42;15.40;82.60
21493;DHT22;10908;50.690;4.400;2023-05-07T00:27:08;15.50;82.60
21493;DHT22;10908;50.690;4.400;2023-05-07T00:29:34;15.40;81.90
21493;DHT22;10908;50.690;4.400;2023-05-07T00:31:59;15.50;82.00
21493;DHT22;10908;50.690;4.400;2023-05-07T00:34:25;15.50;81.80
21493;DHT22;10908;50.690;4.400;2023-05-07T00:36:51;15.60;81.60
21493;DHT22;10908;50.690;4.400;2023-05-07T00:39:16;15.60;81.10
21493;DHT22;10908;50.690;4.400;2023-05-07T00:41:42;15.60;81.10
21493;DHT22;10908;50.690;4.400;2023-05-07T00:44:08;15.70;80.90
21493;DHT22;10908;50.690;4.400;2023-05-07T00:46:34;15.80;80.60
21493;DHT22;10908;50.690;4.400;2023-05-07T00:48:59;15.80;80.10
21493;DHT22;10908;50.690;4.400;2023-05-07T00:51:26;15.60;80.10
21493;DHT22;10908;50.690;4.400;2023-05-07T00:53:53;15.60;80.60
21493;DHT22;10908;50.690;4.400;2023-05-07T00:56:21;15.70;80.70
21493;DHT22;10908;50.690;4.400;2023-05-07T00:58:47;15.60;80.50
21493;DHT22;10908;50.690;4.400;2023-05-07T01:01:12;15.50;80.70
21493;DHT22;10908;50.690;4.400;2023-05-07T01:03:38;15.20;81.50
21493;DHT22;10908;50.690;4.400;2023-05-07T01:06:05;15.20;81.80
21493;DHT22;10908;50.690;4.400;2023-05-07T01:08:33;15.10;82.10
21493;DHT22;10908;50.690;4.400;2023-05-07T01:11:00;15.30;82.10
21493;DHT22;10908;50.690;4.400;2023-05-07T01:13:27;15.60;80.90
21493;DHT22;10908;50.690;4.400;2023-05-07T01:15:53;15.80;80.20
21493;DHT22;10908;50.690;4.400;2023-05-07T01:18:19;15.60;80.10
21493;DHT22;10908;50.690;4.400;2023-05-07T01:20:45;15.40;80.70
21493;DHT22;10908;50.690;4.400;2023-05-07T01:23:11;15.20;81.20
21493;DHT22;10908;50.690;4.400;2023-05-07T01:25:38;15.20;81.70
21493;DHT22;10908;50.690;4.400;2023-05-07T01:28:03;15.20;81.30
21493;DHT22;10908;50.690;4.400;2023-05-07T01:30:29;15.10;81.90
21493;DHT22;10908;50.690;4.400;2023-05-07T01:33:06;15.00;82.00
21493;DHT22;10908;50.690;4.400;2023-05-07T01:35:39;14.80;82.50
21493;DHT22;10908;50.690;4.400;2023-05-07T01:38:06;14.60;83.20
21493;DHT22;10908;50.690;4.400;2023-05-07T01:40:33;14.50;83.80
21493;DHT22;10908;50.690;4.400;2023-05-07T01:43:00;14.50;84.00
21493;DHT22;10908;50.690;4.400;2023-05-07T01:45:27;14.50;84.10
21493;DHT22;10908;50.690;4.400;2023-05-07T01:47:53;14.40;84.20
21493;DHT22;10908;50.690;4.400;2023-05-07T01:50:20;14.40;84.30
21493;DHT22;10908;50.690;4.400;2023-05-07T01:52:47;14.40;84.30
21493;DHT22;10908;50.690;4.400;2023-05-07T01:55:15;14.30;84.40
21493;DHT22;10908;50.690;4.400;2023-05-07T01:57:41;14.50;84.50
21493;DHT22;10908;50.690;4.400;2023-05-07T02:00:07;14.30;84.10
21493;DHT22;10908;50.690;4.400;2023-05-07T02:02:34;14.20;84.60
21493;DHT22;10908;50.690;4.400;2023-05-07T02:05:00;14.10;84.90
21493;DHT22;10908;50.690;4.400;2023-05-07T02:07:27;14.00;85.40
21493;DHT22;10908;50.690;4.400;2023-05-07T02:09:53;14.00;85.70
21493;DHT22;10908;50.690;4.400;2023-05-07T02:12:21;14.10;85.60
21493;DHT22;10908;50.690;4.400;2023-05-07T02:14:46;14.00;85.20
21493;DHT22;10908;50.690;4.400;2023-05-07T02:17:12;14.00;85.30
21493;DHT22;10908;50.690;4.400;2023-05-07T02:19:38;13.90;85.30
21493;DHT22;10908;50.690;4.400;2023-05-07T02:22:03;13.90;85.30
21493;DHT22;10908;50.690;4.400;2023-05-07T02:24:29;14.00;85.30
21493;DHT22;10908;50.690;4.400;2023-05-07T02:26:55;14.00;85.30
21493;DHT22;10908;50.690;4.400;2023-05-07T02:29:21;14.10;85.10
21493;DHT22;10908;50.690;4.400;2023-05-07T02:31:46;14.30;84.90
21493;DHT22;10908;50.690;4.400;2023-05-07T02:34:16;14.80;83.40
21493;DHT22;10908;50.690;4.400;2023-05-07T02:36:42;14.90;82.10
21493;DHT22;10908;50.690;4.400;2023-05-07T02:39:08;14.60;82.30
21493;DHT22;10908;50.690;4.400;2023-05-07T02:41:33;14.40;82.80
21493;DHT22;10908;50.690;4.400;2023-05-07T02:43:59;14.20;83.40
21493;DHT22;10908;50.690;4.400;2023-05-07T02:46:26;14.20;83.50
21493;DHT22;10908;50.690;4.400;2023-05-07T02:48:52;14.00;84.10
21493;DHT22;10908;50.690;4.400;2023-05-07T02:51:20;13.90;84.70
21493;DHT22;10908;50.690;4.400;2023-05-07T02:53:46;14.00;85.10
21493;DHT22;10908;50.690;4.400;2023-05-07T02:56:12;14.00;85.00
21493;DHT22;10908;50.690;4.400;2023-05-07T02:58:38;14.00;85.10
21493;DHT22;10908;50.690;4.400;2023-05-07T03:01:07;13.90;85.20
21493;DHT22;10908;50.690;4.400;2023-05-07T03:03:33;13.90;85.40
21493;DHT22;10908;50.690;4.400;2023-05-07T03:05:59;14.00;85.40
21493;DHT22;10908;50.690;4.400;2023-05-07T03:08:25;14.00;85.30
21493;DHT22;10908;50.690;4.400;2023-05-07T03:10:51;13.90;85.30
21493;DHT22;10908;50.690;4.400;2023-05-07T03:13:17;13.90;85.40
21493;DHT22;10908;50.690;4.400;2023-05-07T03:15:43;13.70;85.70
21493;DHT22;10908;50.690;4.400;2023-05-07T03:18:08;13.70;86.00
21493;DHT22;10908;50.690;4.400;2023-05-07T03:20:34;13.70;86.50
21493;DHT22;10908;50.690;4.400;2023-05-07T03:23:01;13.70;86.70
21493;DHT22;10908;50.690;4.400;2023-05-07T03:25:28;14.00;86.50
21493;DHT22;10908;50.690;4.400;2023-05-07T03:27:55;14.10;86.00
21493;DHT22;10908;50.690;4.400;2023-05-07T03:30:21;14.30;85.70
21493;DHT22;10908;50.690;4.400;2023-05-07T03:32:47;14.40;84.60
21493;DHT22;10908;50.690;4.400;2023-05-07T03:35:13;14.30;84.50
21493;DHT22;10908;50.690;4.400;2023-05-07T03:37:39;14.30;84.70
21493;DHT22;10908;50.690;4.400;2023-05-07T03:40:06;14.10;85.20
21493;DHT22;10908;50.690;4.400;2023-05-07T03:42:33;14.20;85.20
21493;DHT22;10908;50.690;4.400;2023-05-07T03:44:58;14.10;85.60
21493;DHT22;10908;50.690;4.400;2023-05-07T03:47:24;14.10;86.00
21493;DHT22;10908;50.690;4.400;2023-05-07T03:49:49;14.10;86.30
21493;DHT22;10908;50.690;4.400;2023-05-07T03:52:16;14.10;86.30
21493;DHT22;10908;50.690;4.400;2023-05-07T03:54:41;14.10;86.10
21493;DHT22;10908;50.690;4.400;2023-05-07T03:57:07;14.00;86.30
21493;DHT22;10908;50.690;4.400;2023-05-07T03:59:32;14.00;86.40
21493;DHT22;10908;50.690;4.400;2023-05-07T04:01:58;14.10;86.40
21493;DHT22;10908;50.690;4.400;2023-05-07T04:04:24;14.10;86.40
21493;DHT22;10908;50.690;4.400;2023-05-07T04:06:49;14.20;86.40
21493;DHT22;10908;50.690;4.400;2023-05-07T04:09:15;14.20;86.40
21493;DHT22;10908;50.690;4.400;2023-05-07T04:11:41;14.30;86.40
21493;DHT22;10908;50.690;4.400;2023-05-07T04:14:06;14.30;86.30
21493;DHT22;10908;50.690;4.400;2023-05-07T04:16:32;14.30;86.20
21493;DHT22;10908;50.690;4.400;2023-05-07T04:18:58;14.10;86.30
21493;DHT22;10908;50.690;4.400;2023-05-07T04:21:23;14.10;86.60
21493;DHT22;10908;50.690;4.400;2023-05-07T04:23:49;14.10;86.80
21493;DHT22;10908;50.690;4.400;2023-05-07T04:26:15;14.20;86.60
21493;DHT22;10908;50.690;4.400;2023-05-07T04:28:41;14.30;86.60
21493;DHT22;10908;50.690;4.400;2023-05-07T04:31:07;14.30;86.50
21493;DHT22;10908;50.690;4.400;2023-05-07T04:33:33;14.40;86.30
21493;DHT22;10908;50.690;4.400;2023-05-07T04:36:01;14.60;86.10
21493;DHT22;10908;50.690;4.400;2023-05-07T04:38:32;14.60;85.70
21493;DHT22;10908;50.690;4.400;2023-05-07T04:41:03;14.50;85.70
21493;DHT22;10908;50.690;4.400;2023-05-07T04:43:28;14.50;85.80
21493;DHT22;10908;50.690;4.400;2023-05-07T04:45:54;14.40;85.90
21493;DHT22;10908;50.690;4.400;2023-05-07T04:48:20;14.40;86.10
21493;DHT22;10908;50.690;4.400;2023-05-07T04:50:49;14.40;86.30
21493;DHT22;10908;50.690;4.400;2023-05-07T04:53:15;14.40;86.40
21493;DHT22;10908;50.690;4.400;2023-05-07T04:55:41;14.40;86.40
21493;DHT22;10908;50.690;4.400;2023-05-07T04:58:08;14.50;86.50
21493;DHT22;10908;50.690;4.400;2023-05-07T05:00:34;14.60;86.50
21493;DHT22;10908;50.690;4.400;2023-05-07T05:03:00;14.80;86.30
21493;DHT22;10908;50.690;4.400;2023-05-07T05:05:25;14.90;85.70
21493;DHT22;10908;50.690;4.400;2023-05-07T05:07:51;15.10;84.80
21493;DHT22;10908;50.690;4.400;2023-05-07T05:10:17;15.10;84.40
21493;DHT22;10908;50.690;4.400;2023-05-07T05:12:43;15.10;84.00
21493;DHT22;10908;50.690;4.400;2023-05-07T05:15:10;15.20;83.90
21493;DHT22;10908;50.690;4.400;2023-05-07T05:17:36;15.50;83.20
21493;DHT22;10908;50.690;4.400;2023-05-07T05:20:02;15.40;83.10
21493;DHT22;10908;50.690;4.400;2023-05-07T05:22:28;15.10;83.70
21493;DHT22;10908;50.690;4.400;2023-05-07T05:24:56;14.90;84.90
21493;DHT22;10908;50.690;4.400;2023-05-07T05:27:22;15.00;85.40
21493;DHT22;10908;50.690;4.400;2023-05-07T05:29:48;15.00;85.50
21493;DHT22;10908;50.690;4.400;2023-05-07T05:32:14;15.10;85.70
21493;DHT22;10908;50.690;4.400;2023-05-07T05:34:39;15.10;86.10
21493;DHT22;10908;50.690;4.400;2023-05-07T05:37:05;15.20;86.00
21493;DHT22;10908;50.690;4.400;2023-05-07T05:39:31;15.40;85.30
21493;DHT22;10908;50.690;4.400;2023-05-07T05:41:56;15.60;83.60
21493;DHT22;10908;50.690;4.400;2023-05-07T05:44:22;15.60;82.80
21493;DHT22;10908;50.690;4.400;2023-05-07T05:46:48;15.60;83.00
21493;DHT22;10908;50.690;4.400;2023-05-07T05:49:15;15.60;83.50
21493;DHT22;10908;50.690;4.400;2023-05-07T05:51:40;15.80;83.60
21493;DHT22;10908;50.690;4.400;2023-05-07T05:54:06;15.80;83.40
21493;DHT22;10908;50.690;4.400;2023-05-07T05:56:32;15.80;83.10
21493;DHT22;10908;50.690;4.400;2023-05-07T05:58:58;15.90;82.90
21493;DHT22;10908;50.690;4.400;2023-05-07T06:01:23;15.80;82.70
21493;DHT22;10908;50.690;4.400;2023-05-07T06:03:49;15.90;82.60
21493;DHT22;10908;50.690;4.400;2023-05-07T06:06:15;15.90;82.30
21493;DHT22;10908;50.690;4.400;2023-05-07T06:08:41;15.90;82.00
21493;DHT22;10908;50.690;4.400;2023-05-07T06:11:08;15.80;81.60
21493;DHT22;10908;50.690;4.400;2023-05-07T06:13:34;15.80;81.60
21493;DHT22;10908;50.690;4.400;2023-05-07T06:16:00;15.90;81.40
21493;DHT22;10908;50.690;4.400;2023-05-07T06:18:25;15.90;81.30
21493;DHT22;10908;50.690;4.400;2023-05-07T06:20:52;16.00;81.30
21493;DHT22;10908;50.690;4.400;2023-05-07T06:23:18;16.00;81.20
21493;DHT22;10908;50.690;4.400;2023-05-07T06:25:48;16.00;81.10
21493;DHT22;10908;50.690;4.400;2023-05-07T06:28:15;15.90;81.20
21493;DHT22;10908;50.690;4.400;2023-05-07T06:30:41;15.90;81.70
21493;DHT22;10908;50.690;4.400;2023-05-07T06:33:06;15.90;82.30
21493;DHT22;10908;50.690;4.400;2023-05-07T06:35:32;15.90;82.30
21493;DHT22;10908;50.690;4.400;2023-05-07T06:37:58;16.00;82.50
21493;DHT22;10908;50.690;4.400;2023-05-07T06:40:25;16.10;82.40
21493;DHT22;10908;50.690;4.400;2023-05-07T06:42:50;16.20;82.30
21493;DHT22;10908;50.690;4.400;2023-05-07T06:45:16;16.20;82.10
21493;DHT22;10908;50.690;4.400;2023-05-07T06:47:41;16.20;82.40
21493;DHT22;10908;50.690;4.400;2023-05-07T06:50:08;16.20;82.50
21493;DHT22;10908;50.690;4.400;2023-05-07T06:52:35;16.20;82.50
21493;DHT22;10908;50.690;4.400;2023-05-07T06:55:01;16.10;83.00
21493;DHT22;10908;50.690;4.400;2023-05-07T06:57:26;16.10;83.40
21493;DHT22;10908;50.690;4.400;2023-05-07T06:59:52;16.10;83.30
21493;DHT22;10908;50.690;4.400;2023-05-07T07:02:18;16.10;83.80
21493;DHT22;10908;50.690;4.400;2023-05-07T07:04:43;16.10;84.00
21493;DHT22;10908;50.690;4.400;2023-05-07T07:07:10;16.20;84.00
21493;DHT22;10908;50.690;4.400;2023-05-07T07:09:36;16.20;84.30
21493;DHT22;10908;50.690;4.400;2023-05-07T07:12:02;16.10;84.50
21493;DHT22;10908;50.690;4.400;2023-05-07T07:14:28;16.20;85.00
21493;DHT22;10908;50.690;4.400;2023-05-07T07:16:53;16.20;85.00
21493;DHT22;10908;50.690;4.400;2023-05-07T07:19:19;16.30;85.20
21493;DHT22;10908;50.690;4.400;2023-05-07T07:21:45;16.20;85.40
21493;DHT22;10908;50.690;4.400;2023-05-07T07:24:12;16.20;85.60
21493;DHT22;10908;50.690;4.400;2023-05-07T07:26:38;16.20;85.70
21493;DHT22;10908;50.690;4.400;2023-05-07T07:29:05;16.20;85.80
21493;DHT22;10908;50.690;4.400;2023-05-07T07:31:32;16.20;85.60
21493;DHT22;10908;50.690;4.400;2023-05-07T07:33:57;16.20;85.70
21493;DHT22;10908;50.690;4.400;2023-05-07T07:36:23;16.20;85.80
21493;DHT22;10908;50.690;4.400;2023-05-07T07:38:49;16.30;85.90
21493;DHT22;10908;50.690;4.400;2023-05-07T07:41:14;16.30;86.00
21493;DHT22;10908;50.690;4.400;2023-05-07T07:43:40;16.30;86.10
21493;DHT22;10908;50.690;4.400;2023-05-07T07:46:06;16.30;86.30
21493;DHT22;10908;50.690;4.400;2023-05-07T07:48:31;16.30;86.40
21493;DHT22;10908;50.690;4.400;2023-05-07T07:50:57;16.40;86.40
21493;DHT22;10908;50.690;4.400;2023-05-07T07:53:23;16.40;86.50
21493;DHT22;10908;50.690;4.400;2023-05-07T07:55:48;16.60;86.40
21493;DHT22;10908;50.690;4.400;2023-05-07T07:58:14;16.60;86.10
21493;DHT22;10908;50.690;4.400;2023-05-07T08:00:39;16.70;86.00
21493;DHT22;10908;50.690;4.400;2023-05-07T08:03:05;16.80;86.00
21493;DHT22;10908;50.690;4.400;2023-05-07T08:05:32;16.80;85.90
21493;DHT22;10908;50.690;4.400;2023-05-07T08:07:58;16.80;85.90
21493;DHT22;10908;50.690;4.400;2023-05-07T08:10:23;16.90;85.90
21493;DHT22;10908;50.690;4.400;2023-05-07T08:12:49;16.80;85.70
21493;DHT22;10908;50.690;4.400;2023-05-07T08:15:16;16.80;85.50
21493;DHT22;10908;50.690;4.400;2023-05-07T08:17:42;16.80;85.50
21493;DHT22;10908;50.690;4.400;2023-05-07T08:20:08;16.80;85.00
21493;DHT22;10908;50.690;4.400;2023-05-07T08:22:35;16.80;85.20
21493;DHT22;10908;50.690;4.400;2023-05-07T08:25:00;16.70;85.20
21493;DHT22;10908;50.690;4.400;2023-05-07T08:27:26;16.80;85.50
21493;DHT22;10908;50.690;4.400;2023-05-07T08:29:52;16.80;85.70
21493;DHT22;10908;50.690;4.400;2023-05-07T08:32:18;16.80;85.40
21493;DHT22;10908;50.690;4.400;2023-05-07T08:34:44;16.90;85.20
21493;DHT22;10908;50.690;4.400;2023-05-07T08:37:10;16.90;85.10
21493;DHT22;10908;50.690;4.400;2023-05-07T08:39:35;16.80;85.10
21493;DHT22;10908;50.690;4.400;2023-05-07T08:42:02;16.80;85.40
21493;DHT22;10908;50.690;4.400;2023-05-07T08:44:33;16.90;85.40
21493;DHT22;10908;50.690;4.400;2023-05-07T08:47:01;16.80;85.80
21493;DHT22;10908;50.690;4.400;2023-05-07T08:49:28;16.80;85.90
21493;DHT22;10908;50.690;4.400;2023-05-07T08:51:54;16.60;86.10
21493;DHT22;10908;50.690;4.400;2023-05-07T08:54:21;16.80;86.10
21493;DHT22;10908;50.690;4.400;2023-05-07T08:56:47;16.70;86.10
21493;DHT22;10908;50.690;4.400;2023-05-07T08:59:13;16.70;86.20
21493;DHT22;10908;50.690;4.400;2023-05-07T09:01:39;16.60;87.10
21493;DHT22;10908;50.690;4.400;2023-05-07T09:04:05;16.80;87.50
21493;DHT22;10908;50.690;4.400;2023-05-07T09:06:32;16.80;87.10
21493;DHT22;10908;50.690;4.400;2023-05-07T09:08:58;16.80;87.20
21493;DHT22;10908;50.690;4.400;2023-05-07T09:11:27;16.80;87.40
21493;DHT22;10908;50.690;4.400;2023-05-07T09:13:57;16.80;87.40
21493;DHT22;10908;50.690;4.400;2023-05-07T09:16:26;17.00;87.60
21493;DHT22;10908;50.690;4.400;2023-05-07T09:18:53;17.10;87.60
21493;DHT22;10908;50.690;4.400;2023-05-07T09:21:19;17.20;87.40
21493;DHT22;10908;50.690;4.400;2023-05-07T09:23:47;17.10;87.10
21493;DHT22;10908;50.690;4.400;2023-05-07T09:26:14;17.10;87.10
21493;DHT22;10908;50.690;4.400;2023-05-07T09:28:41;17.10;86.50
21493;DHT22;10908;50.690;4.400;2023-05-07T09:31:07;17.10;86.50
21493;DHT22;10908;50.690;4.400;2023-05-07T09:33:33;17.30;86.50
21493;DHT22;10908;50.690;4.400;2023-05-07T09:36:05;17.30;86.20
21493;DHT22;10908;50.690;4.400;2023-05-07T09:38:33;17.40;86.00
21493;DHT22;10908;50.690;4.400;2023-05-07T09:41:09;17.40;86.40
21493;DHT22;10908;50.690;4.400;2023-05-07T09:43:36;17.50;86.50
21493;DHT22;10908;50.690;4.400;2023-05-07T09:46:12;17.60;86.40
21493;DHT22;10908;50.690;4.400;2023-05-07T09:48:39;17.60;86.30
21493;DHT22;10908;50.690;4.400;2023-05-07T09:53:41;17.60;86.40
21493;DHT22;10908;50.690;4.400;2023-05-07T09:56:08;17.50;86.70
21493;DHT22;10908;50.690;4.400;2023-05-07T09:58:37;17.50;86.60
21493;DHT22;10908;50.690;4.400;2023-05-07T10:01:03;17.50;86.70
21493;DHT22;10908;50.690;4.400;2023-05-07T10:03:31;17.40;86.40
21493;DHT22;10908;50.690;4.400;2023-05-07T10:05:58;17.40;86.60
21493;DHT22;10908;50.690;4.400;2023-05-07T10:08:24;17.60;86.70
21493;DHT22;10908;50.690;4.400;2023-05-07T10:10:50;17.50;86.60
21493;DHT22;10908;50.690;4.400;2023-05-07T10:13:18;17.50;86.70
21493;DHT22;10908;50.690;4.400;2023-05-07T10:15:44;17.60;86.20
21493;DHT22;10908;50.690;4.400;2023-05-07T10:18:12;17.50;85.30
21493;DHT22;10908;50.690;4.400;2023-05-07T10:20:39;17.50;85.40
21493;DHT22;10908;50.690;4.400;2023-05-07T10:23:05;17.40;85.70
21493;DHT22;10908;50.690;4.400;2023-05-07T10:25:32;17.50;85.40
21493;DHT22;10908;50.690;4.400;2023-05-07T10:28:03;17.70;85.30
21493;DHT22;10908;50.690;4.400;2023-05-07T10:33:11;17.80;85.10
21493;DHT22;10908;50.690;4.400;2023-05-07T10:35:42;17.90;84.20
21493;DHT22;10908;50.690;4.400;2023-05-07T10:38:09;18.00;84.10
21493;DHT22;10908;50.690;4.400;2023-05-07T10:40:36;18.10;84.50
21493;DHT22;10908;50.690;4.400;2023-05-07T10:43:03;18.20;84.30
21493;DHT22;10908;50.690;4.400;2023-05-07T10:45:32;18.30;83.90
21493;DHT22;10908;50.690;4.400;2023-05-07T10:50:38;18.60;83.40
21493;DHT22;10908;50.690;4.400;2023-05-07T10:55:48;18.80;83.30
21493;DHT22;10908;50.690;4.400;2023-05-07T10:58:34;18.80;83.10
21493;DHT22;10908;50.690;4.400;2023-05-07T11:01:02;18.80;82.90
21493;DHT22;10908;50.690;4.400;2023-05-07T11:03:28;18.80;82.80
21493;DHT22;10908;50.690;4.400;2023-05-07T11:06:10;18.80;82.00
21493;DHT22;10908;50.690;4.400;2023-05-07T11:08:55;18.70;82.50
21493;DHT22;10908;50.690;4.400;2023-05-07T11:11:44;18.70;82.80
21493;DHT22;10908;50.690;4.400;2023-05-07T11:14:09;18.80;83.20
21493;DHT22;10908;50.690;4.400;2023-05-07T11:16:35;18.70;82.40
21493;DHT22;10908;50.690;4.400;2023-05-07T11:19:04;18.80;83.00
21493;DHT22;10908;50.690;4.400;2023-05-07T11:21:40;18.80;83.20
21493;DHT22;10908;50.690;4.400;2023-05-07T11:24:08;18.80;82.60
21493;DHT22;10908;50.690;4.400;2023-05-07T11:26:48;18.90;81.90
21493;DHT22;10908;50.690;4.400;2023-05-07T11:29:19;18.90;81.70
21493;DHT22;10908;50.690;4.400;2023-05-07T11:31:53;18.90;82.10
21493;DHT22;10908;50.690;4.400;2023-05-07T11:34:24;18.90;80.60
21493;DHT22;10908;50.690;4.400;2023-05-07T11:36:51;18.90;80.40
21493;DHT22;10908;50.690;4.400;2023-05-07T11:39:24;18.90;80.80
21493;DHT22;10908;50.690;4.400;2023-05-07T11:41:50;18.90;81.60
21493;DHT22;10908;50.690;4.400;2023-05-07T11:44:16;18.90;81.80
21493;DHT22;10908;50.690;4.400;2023-05-07T11:46:44;18.80;81.50
21493;DHT22;10908;50.690;4.400;2023-05-07T11:49:10;18.90;82.40
21493;DHT22;10908;50.690;4.400;2023-05-07T11:51:36;19.00;82.00
21493;DHT22;10908;50.690;4.400;2023-05-07T11:54:03;18.90;81.70
21493;DHT22;10908;50.690;4.400;2023-05-07T11:56:29;18.90;81.30
21493;DHT22;10908;50.690;4.400;2023-05-07T11:58:59;19.00;80.70
21493;DHT22;10908;50.690;4.400;2023-05-07T12:01:24;19.10;80.50
21493;DHT22;10908;50.690;4.400;2023-05-07T12:03:50;19.10;80.50
21493;DHT22;10908;50.690;4.400;2023-05-07T12:06:16;19.30;80.00
21493;DHT22;10908;50.690;4.400;2023-05-07T12:08:43;19.30;79.90
21493;DHT22;10908;50.690;4.400;2023-05-07T12:11:12;19.30;81.20
21493;DHT22;10908;50.690;4.400;2023-05-07T12:13:38;19.20;81.60
21493;DHT22;10908;50.690;4.400;2023-05-07T12:16:05;18.90;81.90
21493;DHT22;10908;50.690;4.400;2023-05-07T12:18:30;18.80;82.50
21493;DHT22;10908;50.690;4.400;2023-05-07T12:20:57;18.90;82.80
21493;DHT22;10908;50.690;4.400;2023-05-07T12:23:23;18.90;81.60
21493;DHT22;10908;50.690;4.400;2023-05-07T12:25:49;18.90;82.50
21493;DHT22;10908;50.690;4.400;2023-05-07T12:28:16;18.80;82.90
21493;DHT22;10908;50.690;4.400;2023-05-07T12:30:46;18.70;83.00
21493;DHT22;10908;50.690;4.400;2023-05-07T12:33:12;18.70;83.10
21493;DHT22;10908;50.690;4.400;2023-05-07T12:35:42;18.80;83.40
21493;DHT22;10908;50.690;4.400;2023-05-07T12:38:16;18.80;83.40
21493;DHT22;10908;50.690;4.400;2023-05-07T12:40:43;18.80;83.60
21493;DHT22;10908;50.690;4.400;2023-05-07T12:43:28;19.00;82.50
21493;DHT22;10908;50.690;4.400;2023-05-07T12:45:56;19.00;82.10
21493;DHT22;10908;50.690;4.400;2023-05-07T12:48:23;19.00;82.20
21493;DHT22;10908;50.690;4.400;2023-05-07T12:50:53;19.00;82.50
21493;DHT22;10908;50.690;4.400;2023-05-07T12:53:22;19.00;80.40
21493;DHT22;10908;50.690;4.400;2023-05-07T12:55:49;19.00;80.70
21493;DHT22;10908;50.690;4.400;2023-05-07T12:58:20;19.10;81.60
21493;DHT22;10908;50.690;4.400;2023-05-07T13:00:48;19.10;81.80
21493;DHT22;10908;50.690;4.400;2023-05-07T13:03:26;19.10;79.90
21493;DHT22;10908;50.690;4.400;2023-05-07T13:05:52;19.20;80.30
21493;DHT22;10908;50.690;4.400;2023-05-07T13:08:32;19.20;81.40
21493;DHT22;10908;50.690;4.400;2023-05-07T13:10:59;19.10;81.50
21493;DHT22;10908;50.690;4.400;2023-05-07T13:13:28;19.10;81.60
21493;DHT22;10908;50.690;4.400;2023-05-07T13:15:54;19.10;81.20
21493;DHT22;10908;50.690;4.400;2023-05-07T13:18:19;18.90;80.70
21493;DHT22;10908;50.690;4.400;2023-05-07T13:20:45;19.00;81.20
21493;DHT22;10908;50.690;4.400;2023-05-07T13:23:11;19.00;81.50
21493;DHT22;10908;50.690;4.400;2023-05-07T13:25:36;19.00;81.40
21493;DHT22;10908;50.690;4.400;2023-05-07T13:28:02;19.10;80.70
21493;DHT22;10908;50.690;4.400;2023-05-07T13:30:30;19.10;80.00
21493;DHT22;10908;50.690;4.400;2023-05-07T13:32:57;19.10;80.70
21493;DHT22;10908;50.690;4.400;2023-05-07T13:35:22;19.10;80.20
21493;DHT22;10908;50.690;4.400;2023-05-07T13:37:48;19.10;79.60
21493;DHT22;10908;50.690;4.400;2023-05-07T13:40:15;19.10;80.10
21493;DHT22;10908;50.690;4.400;2023-05-07T13:42:40;19.10;80.30
21493;DHT22;10908;50.690;4.400;2023-05-07T13:45:07;19.00;80.90
21493;DHT22;10908;50.690;4.400;2023-05-07T13:50:53;18.90;81.50
21493;DHT22;10908;50.690;4.400;2023-05-07T13:53:19;18.90;82.30
21493;DHT22;10908;50.690;4.400;2023-05-07T13:55:45;18.90;82.70
21493;DHT22;10908;50.690;4.400;2023-05-07T13:58:11;18.80;83.10
21493;DHT22;10908;50.690;4.400;2023-05-07T14:00:37;18.80;83.50
21493;DHT22;10908;50.690;4.400;2023-05-07T14:03:04;18.80;83.20
21493;DHT22;10908;50.690;4.400;2023-05-07T14:05:31;18.90;82.30
21493;DHT22;10908;50.690;4.400;2023-05-07T14:07:57;18.90;82.40
21493;DHT22;10908;50.690;4.400;2023-05-07T14:10:23;18.70;82.50
21493;DHT22;10908;50.690;4.400;2023-05-07T14:12:49;18.50;82.60
21493;DHT22;10908;50.690;4.400;2023-05-07T14:15:15;18.50;83.00
21493;DHT22;10908;50.690;4.400;2023-05-07T14:17:42;18.70;83.00
21493;DHT22;10908;50.690;4.400;2023-05-07T14:20:08;18.80;82.30
21493;DHT22;10908;50.690;4.400;2023-05-07T14:22:34;18.90;82.60
21493;DHT22;10908;50.690;4.400;2023-05-07T14:24:59;18.90;82.20
21493;DHT22;10908;50.690;4.400;2023-05-07T14:27:25;18.90;81.80
21493;DHT22;10908;50.690;4.400;2023-05-07T14:29:51;18.90;81.90
21493;DHT22;10908;50.690;4.400;2023-05-07T14:32:17;18.90;81.90
21493;DHT22;10908;50.690;4.400;2023-05-07T14:34:44;18.90;82.10
21493;DHT22;10908;50.690;4.400;2023-05-07T14:37:09;18.90;82.00
21493;DHT22;10908;50.690;4.400;2023-05-07T14:39:35;18.90;82.60
21493;DHT22;10908;50.690;4.400;2023-05-07T14:42:01;18.80;82.80
21493;DHT22;10908;50.690;4.400;2023-05-07T14:44:27;18.70;83.00
21493;DHT22;10908;50.690;4.400;2023-05-07T14:46:53;18.70;83.40
21493;DHT22;10908;50.690;4.400;2023-05-07T14:49:18;18.80;82.60
21493;DHT22;10908;50.690;4.400;2023-05-07T14:51:45;18.90;82.10
21493;DHT22;10908;50.690;4.400;2023-05-07T14:54:11;18.70;83.00
21493;DHT22;10908;50.690;4.400;2023-05-07T14:56:37;18.60;83.00
21493;DHT22;10908;50.690;4.400;2023-05-07T14:59:03;18.80;82.80
21493;DHT22;10908;50.690;4.400;2023-05-07T15:01:30;18.80;82.60
21493;DHT22;10908;50.690;4.400;2023-05-07T15:03:55;18.80;82.70
21493;DHT22;10908;50.690;4.400;2023-05-07T15:06:21;18.70;83.10
21493;DHT22;10908;50.690;4.400;2023-05-07T15:08:47;18.70;83.80
21493;DHT22;10908;50.690;4.400;2023-05-07T15:11:14;18.70;83.70
21493;DHT22;10908;50.690;4.400;2023-05-07T15:13:41;18.60;83.40
21493;DHT22;10908;50.690;4.400;2023-05-07T15:16:07;18.60;83.40
21493;DHT22;10908;50.690;4.400;2023-05-07T15:18:33;18.60;83.50
21493;DHT22;10908;50.690;4.400;2023-05-07T15:20:59;18.60;84.10
21493;DHT22;10908;50.690;4.400;2023-05-07T15:23:24;18.60;83.70
21493;DHT22;10908;50.690;4.400;2023-05-07T15:25:52;18.50;84.10
21493;DHT22;10908;50.690;4.400;2023-05-07T15:28:17;18.60;84.20
21493;DHT22;10908;50.690;4.400;2023-05-07T15:30:44;18.70;83.50
21493;DHT22;10908;50.690;4.400;2023-05-07T15:33:10;18.70;83.90
21493;DHT22;10908;50.690;4.400;2023-05-07T15:35:36;18.80;83.90
21493;DHT22;10908;50.690;4.400;2023-05-07T15:38:02;18.80;83.50
21493;DHT22;10908;50.690;4.400;2023-05-07T15:40:28;18.60;82.30